Skip to main content

NOAA/GLERL Met Station at Chicago, IL

Previous 5 days (top of hour only)
See also Previous 3 Hours (2 minute increments)
Jump down to Data
Switch to [English][Metric]
Zoom: Click and drag, Pan: shift-click and drag, Unzoom: double-click, Unzoom All




Note: Speed = mean wind during 2-minute period at top of hour,
Gust = max wind during 2-minute period at top of hour,
Peak = max wind during entire hour.
• See also 5-day windrose plot


NOAA/GLERL Met Station at Chicago, IL

Previous 5 days (top of hour only)
See also Previous 3 Hours (2 minute increments)
Jump up to Graphs
Switch to [English][Metric]
                  Wind  Wind  Wind   Air   Dew   Rel
                   Spd   Gst   Dir  Temp    Pt   Hum
YYYY-MM-DD   CST   kts   kts   deg     F     F     %
2020-12-04 00:00 -99.0 -99.0   -99   0.0   0.0   0.0
2020-12-03 19:00  18.3  21.2   251  41.9  27.8  57.0
2020-12-03 18:00  18.5  21.8   240  42.4  29.1  58.9
2020-12-03 17:00  17.3  21.0   234  43.0  29.7  59.0
2020-12-03 16:00  18.9  21.8   253  44.1  29.1  55.2
2020-12-03 15:00  19.2  21.6   270  45.5  28.7  51.4
2020-12-03 14:00  15.9  17.9   273  44.8  29.2  54.0
2020-12-03 13:00  19.2  21.2   259  44.8  27.4  50.2
2020-12-03 12:00  17.1  19.8   246  41.7  26.3  53.9
2020-12-03 11:00  20.2  23.5   257  38.5  27.3  63.7
2020-12-03 10:00  13.2  17.1   244  36.1  25.8  65.8
2020-12-03 09:00  16.3  17.9   267  33.4  24.6  69.7
2020-12-03 08:00   8.2   9.5   231  35.2  26.0  68.7
2020-12-03 07:00  12.8  14.8   262  34.5  24.2  65.6
2020-12-03 06:00  16.3  18.7   247  36.1  23.7  60.4
2020-12-03 05:00  10.1  12.1   259  36.1  23.1  58.7
2020-12-03 04:00   6.6   8.9   237  38.3  24.6  57.5
2020-12-03 03:00  11.3  12.8   245  36.5  22.3  56.0
2020-12-03 02:00   9.3  11.3   269  36.0  22.6  58.0
2020-12-03 01:00  13.0  15.9   270  37.6  21.7  52.4
2020-12-03 00:00  11.5  13.2   268  37.8  20.7  49.9
2020-12-02 23:00   6.6   8.9   227  40.3  22.9  49.5
2020-12-02 22:00  16.1  19.8   251  39.7  22.1  49.0
2020-12-02 21:00  18.5  19.8   251  41.0  23.6  49.6
2020-12-02 20:00  18.5  20.4   252  41.9  23.7  48.1
2020-12-02 19:00  14.2  15.7   254  43.2  22.1  42.9
2020-12-02 18:00  13.8  15.7   248  45.1  18.2  33.6
2020-12-02 17:00  10.5  10.9   251  46.0  19.7  34.6
2020-12-02 16:00  10.1  11.1   266  47.5  10.7  22.2
2020-12-02 15:00   9.3  10.1   276  47.5  14.6  26.4
2020-12-02 14:00   7.8   8.7   265  46.2  15.6  28.9
2020-12-02 13:00   2.9   3.7   211  43.7  18.2  35.5
2020-12-02 12:00   2.1   2.5   177  41.5  22.9  47.1
2020-12-02 11:00   4.3   5.1   238  37.8  22.7  54.2
2020-12-02 10:00   5.8   6.4   293  34.3  21.2  58.3
2020-12-02 09:00   8.2   9.1   291  32.0  23.1  69.4
2020-12-02 08:00  10.1  11.3   289  30.9  22.6  71.1
2020-12-02 07:00   9.7  10.9   275  30.7  23.2  73.2
2020-12-02 06:00  10.5  11.7   300  31.3  22.6  69.9
2020-12-02 05:00  11.1  12.2   286  30.7  22.6  71.5
2020-12-02 04:00  11.1  12.2   291  31.5  23.1  70.8
2020-12-02 03:00  13.0  14.2   306  31.6  22.8  69.6
2020-12-02 02:00  11.5  12.6   309  31.8  22.9  69.2
2020-12-02 01:00  11.3  13.8   304  32.2  23.0  68.6
2020-12-02 00:00  13.4  14.4   305  32.2  22.4  67.0
2020-12-01 23:00  13.4  15.6   307  32.4  24.0  71.1
2020-12-01 22:00  14.6  16.5   311  32.7  24.1  70.2
2020-12-01 21:00  13.8  15.7   304  33.1  24.2  69.4
2020-12-01 20:00  14.4  15.9   308  33.3  23.9  68.3
2020-12-01 19:00  14.0  16.7   309  33.6  23.5  66.2
2020-12-01 18:00  15.4  17.9   302  33.8  22.1  62.0
2020-12-01 17:00  11.9  14.4   297  34.0  20.8  58.2
2020-12-01 16:00  10.3  12.6   300  33.3  20.1  58.2
2020-12-01 15:00  10.3  11.3   313  32.5  20.9  61.8
2020-12-01 14:00  11.7  13.0   317  31.1  22.7  70.7
2020-12-01 13:00  13.2  17.3   306  30.9  23.6  74.0
2020-12-01 12:00  15.2  16.7   294  30.0  22.4  73.0
2020-12-01 11:00  15.9  18.7   289  28.9  21.3  72.7
2020-12-01 10:00  15.9  17.1   279  28.2  21.5  75.5
2020-12-01 09:00  15.9  17.7   293  27.5  20.9  76.0
2020-12-01 08:00  14.2  17.9   311  27.5  20.4  74.3
2020-12-01 07:00  15.4  17.3   302  27.7  20.2  73.2
2020-12-01 06:00  16.7  19.6   315  28.0  20.5  72.9
2020-12-01 05:00  16.1  18.1   308  28.2  20.2  71.5
2020-12-01 04:00  17.3  19.8   296  28.8  20.7  71.6
2020-12-01 03:00  20.4  22.6   298  28.9  20.2  69.4
2020-12-01 02:00  19.8  21.6   303  29.3  20.8  70.3
2020-12-01 01:00  23.9  25.9   297  29.8  21.3  70.3
2020-12-01 00:00  20.8  22.4   303  29.5  19.8  67.0
2020-11-30 23:00  21.0  23.7   311  30.0  21.4  70.0
2020-11-30 22:00  22.7  25.5   305  30.2  21.7  70.4
2020-11-30 21:00  23.1  25.1   311  30.0  21.5  70.4
2020-11-30 20:00  23.3  26.4   310  30.0  22.0  71.7
2020-11-30 19:00  23.3  26.4   318  30.2  22.4  72.5
2020-11-30 18:00  26.4  31.7   329  31.3  25.5  79.0
2020-11-30 17:00  26.4  29.5   321  30.9  24.8  77.8
2020-11-30 16:00  27.6  31.3   320  30.9  25.8  81.1
2020-11-30 15:00  28.8  32.5   322  30.7  25.2  79.6
2020-11-30 14:00  25.7  28.8   324  30.7  26.3  83.4
2020-11-30 13:00  29.4  33.0   322  30.6  25.4  81.0
2020-11-30 12:00  30.7  36.7   328  30.6  26.7  85.3
2020-11-30 11:00  32.5  35.6   334  30.2  25.2  81.6
2020-11-30 10:00  30.3  36.2   328  31.5  25.9  79.8
2020-11-30 09:00  29.0  32.1   333  32.7  26.1  76.4
2020-11-30 08:00  31.7  35.2   346  34.3  25.7  70.3
2020-11-30 07:00  28.8  33.8   345  34.9  27.6  74.5
2020-11-30 06:00  25.9  29.9   347  35.8  27.0  70.1
2020-11-30 05:00  31.7  35.6   343  36.1  28.5  73.5
2020-11-30 04:00  31.1  33.6   357  36.5  29.6  75.7
2020-11-30 03:00  29.5  35.0   340  36.9  29.3  73.8
2020-11-30 02:00  29.5  31.5   334  36.7  27.5  69.0
2020-11-30 01:00  25.1  28.6   328  37.6  29.2  71.5
2020-11-30 00:00  25.9  29.7   336  38.7  31.2  74.2
2020-11-29 23:00  26.2  28.0   337  38.7  30.1  70.9
2020-11-29 22:00  27.0  28.6   353  40.5  29.9  65.7
2020-11-29 21:00  24.9  27.2   338  40.5  30.4  67.0
2020-11-29 20:00  25.9  28.0   336  41.0  31.5  68.5
2020-11-29 19:00  26.0  29.2   334  41.9  33.3  71.2
2020-11-29 18:00  22.6  25.9   341  44.6  36.7  73.6